Redlands, CA (92374)

1:06 AM PDT on September 17, 2014 (GMT -0700)
Redlands High School-Terriers | Change Station
CLOSE
Current Station
Personal Weather Station
Location: Redlands, CA
Elevation: 1505 ft
Nearby Weather Stations

Elev 1505 ft 34.05 °N, 117.17 °W | Updated 15 seconds ago

Partly Cloudy
Partly Cloudy
80.9 °F
Feels Like 83 °F
N
0.0
Wind Variable Wind from North
Gusts 2.0 mph

Today
High -- | Low -- °F
--% Chance of Precip.
Yesterday
High -- | Low -- °F
Precip. -- in
6:33 AM 6:52 PM
Last Quarter, 38% visible
Pressure 29.76 in
Visibility 10.0 miles
Clouds Clear
Heat Index 83 °F
Dew Point 64 °F
Humidity 57%
Rainfall 0.00 in
Snow Depth Not available.
UV 0.0 out of 12
Pollen 6.80 out of 12
Ozone Good
Flu Activity Not available.
METAR KRIV 170758Z AUTO VRB04KT 10SM CLR 29/19 A2982 RMK AO2 SLP077 T02920189 404010229

More Conditions Fewer Conditions

Pressure 29.76 in
Visibility 10.0 miles
Clouds Clear
Heat Index 83 °F
Dew Point 64 °F
Humidity 57%
Rainfall 0.00 in
Snow Depth Not available.
UV 0.0 out of 12
Pollen 6.80 out of 12
Ozone Good
Flu Activity Not available.
METAR KRIV 170758Z AUTO VRB04KT 10SM CLR 29/19 A2982 RMK AO2 SLP077 T02920189 404010229

More Conditions Fewer Conditions

10-Day Weather Forecast

Almanac

Astronomy

Sep. 17, 2014 Rise Set
Actual Time 6:33 AM PDT 6:52 PM PDT
Civil Twilight 6:08 AM PDT 7:17 PM PDT
Nautical Twilight 5:38 AM PDT 7:46 PM PDT
Astronomical Twilight 5:09 AM PDT 8:16 PM PDT
Moon 12:48 AM PDT 2:54 PM PDT
Length of Visible Light 13h 09m
Length of Day
12h 18m
Tomorrow will be 2m 6s shorter.
Last Quarter, 38% of the Moon is Illuminated
Today
Last Quarter
Sep 24
New
Oct 1
First Quarter
Oct 8
Full
Oct 15
Last Quarter

Today's Extremes

State Highs State Lows

Community

WunderPhotos

Upload Photos

1,753,976 photos uploaded!

Nearby

Air Quality

  Air Quality AQ Index Pollutant
Yesterday Unhealthy for Sensitive Groups
OZONE
Current Good
OZONE
Wednesday Unhealthy for Sensitive Groups
OZONE
Wednesday Good
PM10
Wednesday Good
CO
Wednesday Good
NO2

Snow Depth

Station Depth Elevation
CSS Lab 2 in 6900 ft
Tahoe City Cross 0 in 6750 ft
Adin Mountain 0 in 6200 ft
Summit Meadow 1 in 9122 ft
Leavitt Lake 0 in 9400 ft

Earthquake Activity

City Distance Mag. Time & Date
La Quinta, California 55 miles 2.7 8:59 PM PDT
2014-09-15
Inyokern, California 136 miles 3.2 5:56 PM PDT
2014-09-14
San Jacinto, California 21 miles 3.0 3:16 PM PDT
2014-09-14
Minimum magnitude displayed is 2.5.

Coastal Water Temperatures

Place Temperature
No Stations Reporting

Nearby Weather Stations